Time;durP1;ratioP1;P1;durP2;ratioP2;P2;SDS_P1;SDS_P2;PMS_P1;PMS_P2;Temp;Humidity;BMP_temperature;BMP_pressure;BME280_temperature;BME280_humidity;BME280_pressure;Samples;Min_cycle;Max_cycle;Signal;HPM_P1;HPM_P2
2022/03/28 18:15:00;;;;;;;68.25;35.50;;;;;;;12.16;65.03;99435.56;5141110;27;20396;-50
2022/03/28 18:17:46;;;;;;;62.97;35.97;;;;;;;11.69;67.53;99436.31;5140457;27;20035;-50
2022/03/28 18:20:31;;;;;;;81.30;44.35;;;;;;;11.24;71.81;99425.66;5135276;27;20483;-50
2022/03/28 18:23:17;;;;;;;91.07;47.67;;;;;;;11.03;74.11;99431.63;5134301;27;20099;-51
2022/03/28 18:28:09;;;;;;;105.65;49.72;;;;;;;10.89;77.35;99422.44;5094803;27;20376;-49
2022/03/28 18:30:53;;;;;;;54.85;30.27;;;;;;;11.34;71.56;99421.84;5058777;28;20048;-49
2022/03/28 18:33:39;;;;;;;46.42;25.20;;;;;;;11.47;69.63;99424.84;5054360;28;20041;-49
2022/03/28 18:36:26;;;;;;;48.53;27.02;;;;;;;11.52;67.69;99419.47;5055904;28;20056;-49
2022/03/28 18:39:10;;;;;;;43.45;25.35;;;;;;;11.51;67.18;99421.25;5056289;28;20084;-49
2022/03/28 18:41:55;;;;;;;46.40;27.23;;;;;;;11.43;68.00;99426.72;5058251;28;20458;-49
2022/03/28 18:44:39;;;;;;;45.67;26.08;;;;;;;11.36;66.90;99412.13;5059561;28;20445;-49
2022/03/28 18:47:24;;;;;;;38.63;23.45;;;;;;;11.37;66.62;99429.56;5063462;28;21327;-49
2022/03/28 18:50:10;;;;;;;49.63;28.23;;;;;;;11.31;68.17;99428.91;5060590;28;20049;-49
2022/03/28 18:52:55;;;;;;;49.63;26.52;;;;;;;11.27;67.80;99427.31;5060948;28;20049;-49
2022/03/28 18:55:39;;;;;;;45.67;24.70;;;;;;;11.24;67.22;99430.88;4815065;28;61208;-49
2022/03/28 18:58:24;;;;;;;48.53;27.65;;;;;;;11.20;67.10;99427.53;5066665;28;20594;-49
2022/03/28 19:01:10;;;;;;;46.78;26.77;;;;;;;11.13;67.29;99430.41;4817488;27;20040;-49
2022/03/28 19:03:54;;;;;;;46.50;27.33;;;;;;;11.02;68.34;99424.66;5053431;28;20048;-49
2022/03/28 19:06:39;;;;;;;49.47;28.25;;;;;;;10.89;69.03;99419.84;5060027;28;20047;-49
2022/03/28 19:09:24;;;;;;;83.10;45.50;;;;;;;10.75;70.21;99417.63;5057933;28;20048;-49
2022/03/28 19:12:08;;;;;;;81.22;45.53;;;;;;;10.71;69.33;99412.56;5059128;28;20475;-49
2022/03/28 19:14:53;;;;;;;75.55;45.83;;;;;;;10.62;70.56;99415.47;5057591;28;20052;-49
2022/03/28 19:17:38;;;;;;;69.68;40.60;;;;;;;10.32;76.87;99412.88;5059428;28;20331;-49
2022/03/28 19:20:22;;;;;;;60.20;36.63;;;;;;;10.25;76.46;99406.94;5059423;28;20051;-50
2022/03/28 19:23:08;;;;;;;54.67;32.65;;;;;;;10.26;74.15;99400.81;5060313;28;20037;-49
2022/03/28 19:25:52;;;;;;;51.80;31.70;;;;;;;10.29;73.49;99411.22;5059736;28;20040;-49
2022/03/28 19:28:36;;;;;;;70.50;37.28;;;;;;;10.30;72.79;99419.91;5059198;28;20508;-49
2022/03/28 19:31:21;;;;;;;79.82;38.78;;;;;;;10.17;75.14;99410.69;5061067;28;20103;-49
2022/03/28 19:34:05;;;;;;;69.50;36.22;;;;;;;10.10;76.67;99403.91;5058098;28;20049;-49
2022/03/28 19:36:50;;;;;;;67.50;35.10;;;;;;;10.12;76.15;99402.97;5058790;28;20882;-49
2022/03/28 19:39:34;;;;;;;76.57;38.47;;;;;;;10.13;75.98;99398.59;5046076;28;20132;-48
2022/03/28 19:42:19;;;;;;;66.72;35.63;;;;;;;10.07;77.04;99397.91;5045688;28;20045;-50
2022/03/28 19:45:04;;;;;;;61.08;31.58;;;;;;;10.03;77.02;99384.94;5045029;28;20052;-49
2022/03/28 19:47:50;;;;;;;63.40;34.22;;;;;;;9.99;77.65;99384.16;5046763;28;20479;-49
2022/03/28 19:50:39;;;;;;;63.97;32.35;;;;;;;10.02;76.77;99375.38;5045015;28;20098;-49
2022/03/28 19:53:23;;;;;;;53.95;28.52;;;;;;;10.00;76.07;99369.31;5045306;28;20063;-49
2022/03/28 19:56:08;;;;;;;49.45;26.00;;;;;;;9.93;75.52;99366.03;5046862;28;20045;-49
2022/03/28 19:58:53;;;;;;;55.22;29.02;;;;;;;9.91;74.94;99370.47;5046903;28;20467;-49
2022/03/28 20:01:39;;;;;;;64.30;33.75;;;;;;;9.78;77.04;99367.34;5047879;28;20053;-49
2022/03/28 20:04:26;;;;;;;57.47;30.67;;;;;;;9.73;75.74;99374.44;5047769;28;20052;-49
2022/03/28 20:07:11;;;;;;;59.60;32.08;;;;;;;9.68;75.90;99370.25;5048723;28;20052;-49
2022/03/28 20:09:56;;;;;;;85.13;41.78;;;;;;;9.63;76.16;99369.53;5048313;28;20045;-49
2022/03/28 20:12:40;;;;;;;78.13;39.78;;;;;;;9.47;77.94;99354.28;5047881;28;20041;-49
2022/03/28 20:15:25;;;;;;;73.43;39.00;;;;;;;9.47;77.89;99359.50;5052955;28;20048;-49
2022/03/28 20:18:09;;;;;;;69.57;37.83;;;;;;;9.31;79.97;99351.22;5049251;28;20486;-48
2022/03/28 20:20:53;;;;;;;67.88;34.45;;;;;;;9.29;79.52;99344.31;5046686;28;21401;-49
2022/03/28 20:23:37;;;;;;;68.20;34.20;;;;;;;9.20;79.46;99342.81;5048435;28;20057;-48
2022/03/28 20:26:23;;;;;;;79.25;38.90;;;;;;;9.09;80.83;99337.00;5047881;28;20049;-49
2022/03/28 20:29:07;;;;;;;68.03;36.35;;;;;;;8.96;81.02;99325.16;5047578;28;20051;-48
2022/03/28 20:31:52;;;;;;;69.13;35.10;;;;;;;8.98;81.00;99326.00;5049163;28;21668;-49
2022/03/28 20:34:37;;;;;;;62.55;31.80;;;;;;;8.89;80.53;99324.47;5048646;28;20126;-48
2022/03/28 20:37:22;;;;;;;64.90;33.05;;;;;;;8.88;80.71;99334.06;5052042;28;20057;-49
2022/03/28 20:40:06;;;;;;;124.88;61.47;;;;;;;8.81;81.68;99332.50;5047470;28;20057;-49
2022/03/28 20:42:51;;;;;;;163.43;81.68;;;;;;;8.72;82.61;99335.34;5049639;28;20048;-49
2022/03/28 20:45:35;;;;;;;148.35;76.85;;;;;;;8.63;83.57;99332.97;5046943;28;20049;-49
2022/03/28 20:48:23;;;;;;;121.20;60.53;;;;;;;8.55;84.88;99330.56;5050597;28;20037;-49
2022/03/28 20:51:08;;;;;;;102.22;51.42;;;;;;;8.36;88.25;99317.03;5046980;28;20049;-49
2022/03/28 20:53:53;;;;;;;71.32;39.17;;;;;;;8.38;86.82;99323.13;5048562;28;20037;-49
2022/03/28 20:56:38;;;;;;;67.90;36.05;;;;;;;8.36;86.83;99314.44;5047113;28;20041;-48
2022/03/28 20:59:23;;;;;;;105.63;47.30;;;;;;;8.24;90.63;99312.09;5049255;28;20076;-49
2022/03/28 21:02:10;;;;;;;98.78;47.75;;;;;;;8.29;87.10;99299.81;5046174;28;20091;-48
2022/03/28 21:04:55;;;;;;;105.90;46.88;;;;;;;8.28;86.73;99305.06;5048400;28;20049;-49
2022/03/28 21:07:39;;;;;;;107.78;48.70;;;;;;;8.21;86.21;99304.34;5048888;28;20041;-49
2022/03/28 21:10:24;;;;;;;97.82;45.70;;;;;;;8.09;87.77;99296.81;5047203;28;20045;-48
2022/03/28 21:13:09;;;;;;;92.68;42.58;;;;;;;8.04;89.12;99298.69;5046958;28;20045;-49
2022/03/28 21:15:54;;;;;;;107.32;50.25;;;;;;;7.96;89.53;99299.72;5049507;28;20061;-49
2022/03/28 21:18:38;;;;;;;120.75;54.53;;;;;;;7.90;88.92;99299.00;5047024;28;20036;-49
2022/03/28 21:21:23;;;;;;;113.97;52.13;;;;;;;7.86;88.25;99295.56;5045552;28;20053;-48
2022/03/28 21:24:08;;;;;;;110.32;50.75;;;;;;;7.82;88.91;99303.50;5046926;28;20064;-48
2022/03/28 21:26:53;;;;;;;97.40;46.88;;;;;;;7.74;89.94;99293.25;5049527;28;20101;-48
2022/03/28 21:29:38;;;;;;;86.55;42.63;;;;;;;7.68;90.25;99289.03;5041525;28;20057;-49
2022/03/28 21:32:24;;;;;;;79.18;39.20;;;;;;;7.70;89.46;99295.06;5049420;28;20088;-49
2022/03/28 21:35:09;;;;;;;69.18;35.05;;;;;;;7.65;89.78;99291.69;5045848;28;20037;-49
2022/03/28 21:37:54;;;;;;;61.80;29.33;;;;;;;7.62;89.00;99294.38;5045112;28;20076;-48
2022/03/28 21:40:38;;;;;;;56.88;28.20;;;;;;;7.54;88.94;99285.88;5045744;28;20049;-48
2022/03/28 21:43:23;;;;;;;53.00;26.38;;;;;;;7.52;89.14;99298.06;5045510;28;20052;-49
2022/03/28 21:46:07;;;;;;;57.50;30.15;;;;;;;7.45;90.86;99296.47;5047215;28;20116;-50
2022/03/28 21:48:52;;;;;;;59.38;29.85;;;;;;;7.39;92.08;99289.63;5046824;28;20467;-49
2022/03/28 21:51:37;;;;;;;61.45;32.38;;;;;;;7.33;93.94;99294.97;5045664;28;20052;-49
2022/03/28 21:54:22;;;;;;;59.22;30.60;;;;;;;7.31;92.58;99285.44;5046206;28;20048;-49
2022/03/28 21:57:06;;;;;;;53.17;28.92;;;;;;;7.28;92.98;99282.91;5046854;28;20053;-48
2022/03/28 21:59:55;;;;;;;53.22;26.00;;;;;;;7.21;94.06;99285.66;5045551;28;20063;-48
2022/03/28 22:02:39;;;;;;;45.60;24.83;;;;;;;7.23;93.93;99275.19;5047571;28;20041;-48
2022/03/28 22:05:24;;;;;;;45.25;23.55;;;;;;;7.20;95.14;99283.91;5047334;28;20052;-49
2022/03/28 22:08:08;;;;;;;44.88;22.45;;;;;;;7.18;94.66;99277.91;5046044;28;20056;-48
2022/03/28 22:10:53;;;;;;;43.83;20.08;;;;;;;7.20;94.37;99277.88;5047533;28;20029;-48
2022/03/28 22:13:38;;;;;;;42.10;20.38;;;;;;;7.15;97.90;99277.06;5045769;28;20040;-49
2022/03/28 22:16:23;;;;;;;47.10;23.92;;;;;;;7.11;97.49;99259.81;5047243;28;20036;-49
2022/03/28 22:19:08;;;;;;;50.50;27.10;;;;;;;7.14;98.24;99264.97;5046011;28;20131;-49
2022/03/28 22:21:52;;;;;;;45.70;23.88;;;;;;;7.14;97.62;99264.97;5048278;28;20052;-48
2022/03/28 22:24:37;;;;;;;45.33;22.05;;;;;;;7.05;99.44;99255.56;5044638;28;20140;-48
2022/03/28 22:27:22;;;;;;;38.50;20.63;;;;;;;7.11;98.45;99257.19;5049494;28;20045;-48
2022/03/28 22:30:07;;;;;;;40.03;18.77;;;;;;;7.09;96.50;99259.84;5045422;28;20049;-48
2022/03/28 22:32:52;;;;;;;38.13;20.00;;;;;;;7.06;98.71;99265.13;5049021;28;20442;-48
2022/03/28 22:35:36;;;;;;;37.08;18.80;;;;;;;7.07;97.86;99261.63;5046361;28;20411;-48
2022/03/28 22:38:21;;;;;;;34.88;19.40;;;;;;;7.04;100.00;99256.47;5048058;28;20110;-48
2022/03/28 22:41:08;;;;;;;36.00;18.65;;;;;;;7.01;99.33;99251.31;5047192;28;20155;-48
2022/03/28 22:43:53;;;;;;;32.85;17.55;;;;;;;7.02;96.77;99246.09;5047484;28;20566;-48
2022/03/28 22:46:38;;;;;;;39.05;21.85;;;;;;;6.94;100.00;99244.50;5046324;28;20052;-48
2022/03/28 22:49:24;;;;;;;50.92;25.25;;;;;;;7.00;98.01;99244.41;5046250;28;21363;-48
2022/03/28 22:52:09;;;;;;;43.25;23.75;;;;;;;7.01;97.48;99246.09;5046988;28;20049;-49
2022/03/28 22:54:54;;;;;;;53.47;27.10;;;;;;;7.05;96.71;99242.53;5049288;28;20097;-48
2022/03/28 22:57:41;;;;;;;41.35;21.63;;;;;;;7.00;98.09;99247.84;5045737;28;20132;-48
2022/03/28 23:00:26;;;;;;;37.58;20.98;;;;;;;6.96;98.54;99243.59;5046065;28;20062;-48
2022/03/28 23:03:11;;;;;;;34.20;19.15;;;;;;;6.98;96.25;99248.75;5046179;28;20042;-49
2022/03/28 23:05:55;;;;;;;37.33;18.83;;;;;;;6.93;96.17;99248.88;5050800;28;20071;-49
2022/03/28 23:08:39;;;;;;;39.60;19.38;;;;;;;6.85;97.55;99232.53;5046349;28;20045;-49
2022/03/28 23:11:24;;;;;;;34.40;18.25;;;;;;;6.80;98.19;99234.38;5045186;28;20486;-48
2022/03/28 23:14:08;;;;;;;33.03;18.63;;;;;;;6.76;98.03;99225.75;5047529;28;20124;-48
2022/03/28 23:16:53;;;;;;;28.50;17.90;;;;;;;6.74;100.00;99222.31;5052155;28;20045;-49
2022/03/28 23:19:37;;;;;;;30.05;17.75;;;;;;;6.73;99.54;99225.81;5049024;28;20041;-49
2022/03/28 23:22:21;;;;;;;33.20;17.50;;;;;;;6.65;99.64;99229.44;5047098;28;20049;-48
2022/03/28 23:25:06;;;;;;;32.17;16.95;;;;;;;6.62;97.96;99224.28;5048260;28;20048;-48
2022/03/28 23:27:51;;;;;;;29.52;16.55;;;;;;;6.55;97.70;99216.59;5050903;28;20708;-48
2022/03/28 23:30:35;;;;;;;28.42;15.70;;;;;;;6.51;97.92;99217.53;5049165;28;20123;-47
2022/03/28 23:33:20;;;;;;;32.03;16.30;;;;;;;6.43;99.29;99214.19;5051542;28;20056;-48
2022/03/28 23:36:04;;;;;;;33.70;16.85;;;;;;;6.37;100.00;99213.44;5050383;28;20049;-48
2022/03/28 23:38:49;;;;;;;31.75;16.30;;;;;;;6.33;99.01;99212.66;5050962;28;20403;-48
2022/03/28 23:41:34;;;;;;;31.52;16.80;;;;;;;6.28;100.00;99217.94;5048820;28;20053;-48
2022/03/28 23:44:19;;;;;;;30.70;17.05;;;;;;;6.19;100.00;99212.91;5048389;28;20056;-48
2022/03/28 23:47:03;;;;;;;35.05;17.67;;;;;;;6.09;100.00;99214.78;5048515;28;20712;-48
2022/03/28 23:49:48;;;;;;;28.85;17.25;;;;;;;6.05;100.00;99214.88;5049102;28;20049;-49
2022/03/28 23:52:33;;;;;;;29.38;16.48;;;;;;;6.06;100.00;99209.63;5048929;28;20044;-48
2022/03/28 23:55:19;;;;;;;31.13;16.55;;;;;;;5.99;100.00;99210.63;5049995;28;20047;-48
2022/03/28 23:58:04;;;;;;;29.58;16.42;;;;;;;5.94;100.00;99204.63;5049676;28;20041;-49
